Terminal Aerodrome Forecast
Issued by NWS

Home | Current Version | Previous Version | Text Only | Print | Product List | Glossary On
Versions: 1 2 3 4 5 6 7 8 9 10 11 12 13 14 15 16 17 18 19 20 21
000
FTUS41 KRLX 241138
TAFCKB
TAF
KCKB 241138Z 2412/2512 18004KT P6SM BKN070
     FM241600 22008G15KT P6SM BKN050
     FM242300 21006KT P6SM BKN050=

USA.gov is the U.S. government's official web portal to all federal, state and local government web resources and services.